Time;durP1;ratioP1;P1;durP2;ratioP2;P2;SDS_P1;SDS_P2;PMS_P1;PMS_P2;Temp;Humidity;BMP_temperature;BMP_pressure;BME280_temperature;BME280_humidity;BME280_pressure;Samples;Min_cycle;Max_cycle;Signal;HPM_P1;HPM_P2
2020/12/01 00:02:12;;;;;;;;;;;;;;;1.82;85.18;101190.10;1590430;90;20327;-82
2020/12/01 00:04:38;;;;;;;;;;;;;;;1.83;85.15;101189.28;1603368;88;20186;-82
2020/12/01 00:07:04;;;;;;;;;;;;;;;1.84;85.14;101182.95;1615529;87;21392;-82
2020/12/01 00:09:30;;;;;;;;;;;;;;;1.85;85.16;101189.78;1585436;88;20248;-81
2020/12/01 00:11:55;;;;;;;;;;;;;;;1.86;85.16;101186.41;1607391;87;20257;-81
2020/12/01 00:14:21;;;;;;;;;;;;;;;1.89;85.18;101185.63;1605156;88;20196;-82
2020/12/01 00:16:47;;;;;;;;;;;;;;;1.91;85.14;101182.71;1615979;88;20677;-82
2020/12/01 00:19:13;;;;;;;;;;;;;;;1.91;85.14;101185.27;1615939;88;22190;-82
2020/12/01 00:21:39;;;;;;;;;;;;;;;1.93;85.15;101179.38;1607721;88;20280;-82
2020/12/01 00:24:05;;;;;;;;;;;;;;;1.91;85.08;101177.20;1599732;88;20180;-82
2020/12/01 00:26:30;;;;;;;;;;;;;;;1.89;85.06;101172.47;1590563;90;20256;-82
2020/12/01 00:28:56;;;;;;;;;;;;;;;1.87;85.04;101170.28;1593538;88;20192;-82
2020/12/01 00:31:22;;;;;;;;;;;;;;;1.83;84.96;101168.88;1548970;87;20927;-82
2020/12/01 00:33:48;;;;;;;;;;;;;;;1.77;84.93;101168.30;1590484;88;20228;-82
2020/12/01 00:36:14;;;;;;;;;;;;;;;1.71;84.87;101172.35;1613312;88;20343;-82
2020/12/01 00:38:40;;;;;;;;;;;;;;;1.64;84.81;101169.63;1565981;90;20765;-82
2020/12/01 00:41:06;;;;;;;;;;;;;;;1.56;84.83;101160.06;1590605;89;20271;-82
2020/12/01 00:43:32;;;;;;;;;;;;;;;1.48;84.84;101162.80;1608304;87;21392;-82
2020/12/01 00:45:58;;;;;;;;;;;;;;;1.44;84.86;101163.11;1641160;86;20168;-82
2020/12/01 00:48:24;;;;;;;;;;;;;;;1.39;84.87;101158.70;1615930;87;20266;-82
2020/12/01 00:50:50;;;;;;;;;;;;;;;1.35;84.87;101152.64;1600604;87;20236;-82
2020/12/01 00:53:15;;;;;;;;;;;;;;;1.30;84.88;101152.51;1546117;90;20294;-82
2020/12/01 00:55:41;;;;;;;;;;;;;;;1.27;84.90;101154.09;1590834;88;21152;-82
2020/12/01 00:58:07;;;;;;;;;;;;;;;1.23;84.89;101146.77;1601643;88;21198;-82
2020/12/01 01:00:33;;;;;;;;;;;;;;;1.21;84.91;101140.77;1602741;88;20201;-82
2020/12/01 01:02:59;;;;;;;;;;;;;;;1.15;84.86;101135.48;1602726;89;20206;-82
2020/12/01 01:05:25;;;;;;;;;;;;;;;1.11;84.85;101140.03;1607469;88;20299;-82
2020/12/01 01:07:51;;;;;;;;;;;;;;;1.06;84.82;101136.88;1607488;88;21281;-82
2020/12/01 01:10:23;;;;;;;;;;;;;;;0.99;84.84;101127.81;1603101;89;21425;-82
2020/12/01 01:12:49;;;;;;;;;;;;;;;0.97;84.88;101132.41;1582227;89;20277;-82
2020/12/01 01:15:15;;;;;;;;;;;;;;;0.92;84.82;101125.03;1593700;89;20598;-82
2020/12/01 01:17:41;;;;;;;;;;;;;;;0.85;84.81;101123.97;1607440;88;20246;-82
2020/12/01 01:20:07;;;;;;;;;;;;;;;0.81;84.85;101119.60;1607452;89;21222;-82
2020/12/01 01:22:33;;;;;;;;;;;;;;;0.79;84.89;101123.78;1606595;89;20305;-82
2020/12/01 01:24:59;;;;;;;;;;;;;;;0.75;84.84;101119.41;1595385;88;20491;-82
2020/12/01 01:27:25;;;;;;;;;;;;;;;0.71;84.86;101118.85;1587682;89;20366;-81
2020/12/01 01:29:51;;;;;;;;;;;;;;;0.69;84.87;101115.80;1581083;89;20301;-81
2020/12/01 01:32:17;;;;;;;;;;;;;;;0.67;84.90;101115.75;1586339;89;21160;-81
2020/12/01 01:34:42;;;;;;;;;;;;;;;0.64;84.90;101115.25;1581164;89;20747;-81
2020/12/01 01:37:08;;;;;;;;;;;;;;;0.65;84.95;101108.48;1581136;89;20208;-81
2020/12/01 01:39:34;;;;;;;;;;;;;;;0.65;84.92;101112.30;1592185;89;20291;-81
2020/12/01 01:42:03;;;;;;;;;;;;;;;0.62;84.91;101107.97;1550624;90;20799;-81
2020/12/01 01:44:30;;;;;;;;;;;;;;;0.62;84.91;101109.24;1599782;88;21283;-81
2020/12/01 01:46:59;;;;;;;;;;;;;;;0.63;84.94;101103.75;1581012;90;20289;-81
2020/12/01 01:49:28;;;;;;;;;;;;;;;0.64;84.94;101105.47;1583333;89;20275;-82
2020/12/01 01:51:56;;;;;;;;;;;;;;;0.65;84.96;101111.02;1606973;88;20550;-82
2020/12/01 01:54:24;;;;;;;;;;;;;;;0.66;84.96;101105.12;1583121;89;20569;-82
2020/12/01 01:56:53;;;;;;;;;;;;;;;0.66;84.94;101102.16;1582062;90;21957;-82
2020/12/01 01:59:19;;;;;;;;;;;;;;;0.66;84.92;101097.48;1603671;88;20266;-82
2020/12/01 02:01:45;;;;;;;;;;;;;;;0.63;84.91;101094.44;1630842;87;20324;-82
2020/12/01 02:04:12;;;;;;;;;;;;;;;0.64;84.93;101096.57;1593964;89;20275;-81
2020/12/01 02:06:47;;;;;;;;;;;;;;;0.61;84.92;101089.70;1604852;88;20272;-81
2020/12/01 02:09:19;;;;;;;;;;;;;;;0.62;84.93;101085.47;1605631;88;21027;-81
2020/12/01 02:11:46;;;;;;;;;;;;;;;0.60;84.94;101084.16;1604985;88;20292;-81
2020/12/01 02:14:36;;;;;;;;;;;;;;;0.62;84.93;101080.39;1604926;88;20273;-81
2020/12/01 02:17:20;;;;;;;;;;;;;;;0.60;84.90;101079.06;1605193;88;20260;-81
2020/12/01 02:19:47;;;;;;;;;;;;;;;0.61;84.93;101081.20;1620765;88;20262;-81
2020/12/01 02:22:19;;;;;;;;;;;;;;;0.61;84.90;101083.75;1630898;86;21942;-81
2020/12/01 02:24:45;;;;;;;;;;;;;;;0.63;84.93;101083.39;1628944;86;20724;-81
2020/12/01 02:27:13;;;;;;;;;;;;;;;0.66;84.96;101083.48;1605028;88;20264;-81
2020/12/01 02:29:42;;;;;;;;;;;;;;;0.67;84.90;101081.40;1605037;88;20263;-81
2020/12/01 02:32:08;;;;;;;;;;;;;;;0.66;84.83;101077.98;1604963;88;20256;-81
2020/12/01 02:34:39;;;;;;;;;;;;;;;0.67;84.80;101078.85;1607709;88;21202;-81
2020/12/01 02:37:05;;;;;;;;;;;;;;;0.64;84.77;101081.30;1583651;89;20251;-81
2020/12/01 02:39:31;;;;;;;;;;;;;;;0.62;84.79;101081.25;1605132;89;20181;-81
2020/12/01 02:41:58;;;;;;;;;;;;;;;0.61;84.77;101078.25;1591599;89;20774;-81
2020/12/01 02:44:25;;;;;;;;;;;;;;;0.60;84.81;101079.47;1641881;86;20267;-81
2020/12/01 02:46:51;;;;;;;;;;;;;;;0.57;84.79;101070.06;1652688;86;20684;-81
2020/12/01 02:49:17;;;;;;;;;;;;;;;0.55;84.76;101072.97;1627183;86;20266;-82
2020/12/01 02:51:43;;;;;;;;;;;;;;;0.51;84.72;101066.49;1604011;88;20308;-82
2020/12/01 02:54:09;;;;;;;;;;;;;;;0.46;84.74;101063.80;1603913;88;20892;-82
2020/12/01 02:56:34;;;;;;;;;;;;;;;0.43;84.74;101071.73;1604046;89;20216;-82
2020/12/01 02:59:00;;;;;;;;;;;;;;;0.39;84.74;101068.23;1604498;88;21294;-82
2020/12/01 03:01:26;;;;;;;;;;;;;;;0.37;84.74;101061.37;1625429;88;20249;-82
2020/12/01 03:03:51;;;;;;;;;;;;;;;0.35;84.75;101061.72;1594320;88;20263;-82
2020/12/01 03:06:18;;;;;;;;;;;;;;;0.32;84.76;101063.35;1603946;88;20570;-82
2020/12/01 03:08:44;;;;;;;;;;;;;;;0.30;84.76;101062.44;1610320;88;20285;-82
2020/12/01 03:11:11;;;;;;;;;;;;;;;0.27;84.74;101058.93;1624032;88;22051;-82
2020/12/01 03:13:37;;;;;;;;;;;;;;;0.23;84.75;101059.23;1604345;88;20260;-82
2020/12/01 03:16:07;;;;;;;;;;;;;;;0.19;84.71;101058.68;1605347;88;20256;-82
2020/12/01 03:18:31;;;;;;;;;;;;;;;0.17;84.74;101064.53;1607083;88;20284;-82
2020/12/01 03:20:56;;;;;;;;;;;;;;;0.13;84.77;101072.46;1614114;87;20208;-82
2020/12/01 03:23:22;;;;;;;;;;;;;;;0.10;84.78;101068.95;1609392;88;22748;-82
2020/12/01 03:25:48;;;;;;;;;;;;;;;0.09;84.77;101065.95;1584038;89;20161;-82
2020/12/01 03:28:13;;;;;;;;;;;;;;;0.07;84.79;101071.39;1605255;88;20141;-82
2020/12/01 03:30:39;;;;;;;;;;;;;;;0.06;84.81;101069.66;1605093;88;20168;-82
2020/12/01 03:33:05;;;;;;;;;;;;;;;0.05;84.84;101076.42;1610647;88;20262;-82
2020/12/01 03:35:31;;;;;;;;;;;;;;;0.05;84.83;101076.42;1604972;88;21283;-82
2020/12/01 03:37:56;;;;;;;;;;;;;;;0.05;84.86;101073.02;1604944;88;20184;-82
2020/12/01 03:40:22;;;;;;;;;;;;;;;0.03;84.82;101079.31;1605006;88;20645;-82
2020/12/01 03:42:48;;;;;;;;;;;;;;;0.02;84.82;101072.91;1615403;88;20262;-82
2020/12/01 03:45:14;;;;;;;;;;;;;;;0.02;84.84;101071.64;1631005;87;20774;-82
2020/12/01 03:47:40;;;;;;;;;;;;;;;0.01;84.84;101066.96;1608502;88;21205;-82
2020/12/01 03:50:07;;;;;;;;;;;;;;;0.00;84.84;101067.81;1622050;87;20218;-82
2020/12/01 03:52:32;;;;;;;;;;;;;;;-0.03;84.85;101067.30;1622866;88;20247;-82
2020/12/01 03:54:58;;;;;;;;;;;;;;;-0.04;84.84;101073.59;1626987;87;20195;-82
2020/12/01 03:57:23;;;;;;;;;;;;;;;-0.06;84.83;101070.14;1616419;88;20208;-82
2020/12/01 03:59:49;;;;;;;;;;;;;;;-0.08;84.81;101065.41;1599137;89;21223;-82
2020/12/01 04:02:15;;;;;;;;;;;;;;;-0.11;84.84;101066.58;1592228;88;20584;-82
2020/12/01 04:04:40;;;;;;;;;;;;;;;-0.13;84.84;101062.71;1583768;89;20234;-82
2020/12/01 04:07:06;;;;;;;;;;;;;;;-0.14;84.86;101053.77;1601883;88;20249;-82
2020/12/01 04:09:32;;;;;;;;;;;;;;;-0.16;84.86;101056.66;1575422;89;20309;-82
2020/12/01 04:11:57;;;;;;;;;;;;;;;-0.19;84.85;101054.88;1594968;88;21200;-82
2020/12/01 04:14:23;;;;;;;;;;;;;;;-0.19;84.87;101059.95;1596464;89;20198;-82
2020/12/01 04:16:49;;;;;;;;;;;;;;;-0.21;84.89;101061.58;1607143;89;20219;-82
2020/12/01 04:19:14;;;;;;;;;;;;;;;-0.21;84.92;101066.66;1595006;88;20214;-82
2020/12/01 04:21:40;;;;;;;;;;;;;;;-0.21;84.88;101063.26;1582052;89;20177;-82
2020/12/01 04:24:06;;;;;;;;;;;;;;;-0.21;84.91;101059.04;1582339;89;21223;-82
2020/12/01 04:26:32;;;;;;;;;;;;;;;-0.21;84.89;101061.98;1584736;89;20257;-82
2020/12/01 04:28:58;;;;;;;;;;;;;;;-0.21;84.93;101065.39;1582206;89;20269;-82
2020/12/01 04:31:24;;;;;;;;;;;;;;;-0.20;84.94;101064.98;1585387;89;20299;-82
2020/12/01 04:33:49;;;;;;;;;;;;;;;-0.19;84.92;101064.17;1596502;88;20232;-82
2020/12/01 04:36:15;;;;;;;;;;;;;;;-0.20;84.94;101064.58;1582283;89;21124;-81
2020/12/01 04:38:41;;;;;;;;;;;;;;;-0.18;84.95;101065.50;1582243;89;20843;-81
2020/12/01 04:41:11;;;;;;;;;;;;;;;-0.17;84.94;101063.42;1582444;89;20165;-82
2020/12/01 04:43:40;;;;;;;;;;;;;;;-0.16;84.97;101066.42;1592069;87;20254;-82
2020/12/01 04:46:10;;;;;;;;;;;;;;;-0.16;84.95;101060.47;1607430;89;20265;-81
2020/12/01 04:48:42;;;;;;;;;;;;;;;-0.14;84.99;101063.52;1603870;88;22055;-81
2020/12/01 04:51:17;;;;;;;;;;;;;;;-0.12;85.01;101064.44;1582996;88;20269;-81
2020/12/01 04:53:52;;;;;;;;;;;;;;;-0.10;85.00;101061.55;1581846;89;20276;-82
2020/12/01 04:56:36;;;;;;;;;;;;;;;-0.09;84.99;101063.27;1581914;89;20562;-81
2020/12/01 04:59:26;;;;;;;;;;;;;;;-0.07;85.01;101062.92;1604898;89;20273;-81
2020/12/01 05:02:02;;;;;;;;;;;;;;;-0.05;85.00;101065.11;1600954;88;21260;-81
2020/12/01 05:04:49;;;;;;;;;;;;;;;-0.02;85.02;101060.53;1605540;89;20266;-81
2020/12/01 05:07:52;;;;;;;;;;;;;;;0.01;85.04;101066.96;1603728;89;20282;-82
2020/12/01 05:10:14;;;;;;;;;;;;;;;0.05;85.03;101064.11;1586562;89;20278;-81
2020/12/01 05:12:43;;;;;;;;;;;;;;;0.09;85.02;101068.48;1600322;89;20311;-81
2020/12/01 05:15:15;;;;;;;;;;;;;;;0.12;85.04;101068.59;1597739;89;22026;-81
2020/12/01 05:18:04;;;;;;;;;;;;;;;0.16;85.01;101067.88;1606023;89;20700;-81
2020/12/01 05:20:30;;;;;;;;;;;;;;;0.19;84.99;101064.17;1606866;89;20661;-81
2020/12/01 05:22:59;;;;;;;;;;;;;;;0.19;84.97;101059.08;1598858;89;20165;-81
2020/12/01 05:25:28;;;;;;;;;;;;;;;0.21;84.96;101053.64;1604341;89;20242;-80
2020/12/01 05:28:10;;;;;;;;;;;;;;;0.23;84.97;101060.91;1608431;88;21201;-81
2020/12/01 05:30:36;;;;;;;;;;;;;;;0.24;84.99;101056.28;1602944;87;20151;-80
2020/12/01 05:33:09;;;;;;;;;;;;;;;0.27;84.96;101058.93;1611180;87;20290;-80
2020/12/01 05:35:35;;;;;;;;;;;;;;;0.29;84.98;101061.98;1603948;87;20313;-80
2020/12/01 05:38:13;;;;;;;;;;;;;;;0.30;84.96;101054.81;1606450;87;20305;-80
2020/12/01 05:40:51;;;;;;;;;;;;;;;0.31;84.92;101057.81;1608483;87;21265;-80
2020/12/01 05:43:33;;;;;;;;;;;;;;;0.35;84.97;101068.08;1613475;87;20262;-80
2020/12/01 05:46:08;;;;;;;;;;;;;;;0.34;84.93;101062.13;1610669;87;20311;-80
2020/12/01 05:48:43;;;;;;;;;;;;;;;0.35;84.94;101065.54;1610185;87;20309;-80
2020/12/01 05:51:12;;;;;;;;;;;;;;;0.37;84.93;101071.55;1597075;88;20305;-80
2020/12/01 05:53:40;;;;;;;;;;;;;;;0.38;84.93;101072.00;1608089;87;21186;-80
2020/12/01 05:56:13;;;;;;;;;;;;;;;0.37;84.93;101064.78;1615646;87;20313;-80
2020/12/01 05:58:42;;;;;;;;;;;;;;;0.38;84.91;101069.45;1613908;87;20270;-80
2020/12/01 06:01:08;;;;;;;;;;;;;;;0.38;84.90;101070.73;1618575;86;20288;-81
2020/12/01 06:03:46;;;;;;;;;;;;;;;0.35;84.86;101068.95;1626356;87;20234;-82
2020/12/01 06:06:14;;;;;;;;;;;;;;;0.35;84.88;101076.58;1611183;87;22002;-80
2020/12/01 06:08:49;;;;;;;;;;;;;;;0.32;84.87;101070.12;1595539;87;20549;-81
2020/12/01 06:11:30;;;;;;;;;;;;;;;0.30;84.82;101073.88;1605377;87;20299;-81
2020/12/01 06:14:21;;;;;;;;;;;;;;;0.28;84.87;101074.65;1615716;87;20318;-81
2020/12/01 06:16:58;;;;;;;;;;;;;;;0.26;84.86;101080.09;1584606;88;20266;-81
2020/12/01 06:19:39;;;;;;;;;;;;;;;0.24;84.90;101083.85;1581744;87;21212;-80
2020/12/01 06:22:14;;;;;;;;;;;;;;;0.22;84.85;101082.08;1601545;87;20388;-81
2020/12/01 06:25:18;;;;;;;;;;;;;;;0.17;84.83;101084.46;1610581;87;20294;-81
2020/12/01 06:28:02;;;;;;;;;;;;;;;0.15;84.87;101088.63;1599681;87;20597;-82
2020/12/01 06:31:02;;;;;;;;;;;;;;;0.12;84.84;101092.75;1597596;87;20283;-81
2020/12/01 06:33:43;;;;;;;;;;;;;;;0.09;84.87;101096.05;1615499;87;21362;-83
2020/12/01 06:36:30;;;;;;;;;;;;;;;0.07;84.86;101098.09;1577379;89;20295;-84
2020/12/01 06:39:19;;;;;;;;;;;;;;;0.06;84.87;101090.00;1604869;87;20257;-82
2020/12/01 06:41:48;;;;;;;;;;;;;;;0.04;84.87;101099.25;1596484;87;20617;-82
2020/12/01 06:44:17;;;;;;;;;;;;;;;0.01;84.85;101092.38;1629037;87;20281;-82
2020/12/01 06:46:49;;;;;;;;;;;;;;;-0.01;84.87;101097.85;1616478;87;22045;-83
2020/12/01 06:49:20;;;;;;;;;;;;;;;-0.03;84.86;101099.07;1575066;89;20261;-83
2020/12/01 06:52:09;;;;;;;;;;;;;;;-0.05;84.88;101106.19;1616827;87;20162;-82
2020/12/01 06:54:45;;;;;;;;;;;;;;;-0.06;84.88;101099.38;1604687;87;20983;-81
2020/12/01 06:57:31;;;;;;;;;;;;;;;-0.08;84.88;101095.91;1619359;87;20254;-81
2020/12/01 06:59:57;;;;;;;;;;;;;;;-0.09;84.89;101096.72;1605665;86;21014;-82
2020/12/01 07:02:38;;;;;;;;;;;;;;;-0.09;84.93;101111.56;1610945;87;20214;-83
2020/12/01 07:05:27;;;;;;;;;;;;;;;-0.07;84.96;101112.89;1578268;89;20562;-83
2020/12/01 07:07:52;;;;;;;;;;;;;;;-0.06;84.99;101114.22;1625351;87;20277;-81
2020/12/01 07:10:27;;;;;;;;;;;;;;;-0.03;85.01;101119.81;1576666;87;20208;-81
2020/12/01 07:13:08;;;;;;;;;;;;;;;0.00;85.02;101111.02;1612515;87;21015;-80
2020/12/01 07:15:40;;;;;;;;;;;;;;;0.03;85.01;101117.45;1607495;87;20552;-81
2020/12/01 07:18:10;;;;;;;;;;;;;;;0.07;85.02;101119.70;1608649;87;20277;-81
2020/12/01 07:20:42;;;;;;;;;;;;;;;0.10;85.02;101124.48;1607161;87;20325;-80
2020/12/01 07:23:11;;;;;;;;;;;;;;;0.15;85.03;101129.31;1625065;87;20265;-81
2020/12/01 07:25:56;;;;;;;;;;;;;;;0.20;85.06;101125.25;1571293;87;20866;-81
2020/12/01 07:28:28;;;;;;;;;;;;;;;0.27;85.06;101123.78;1602057;87;20286;-80
2020/12/01 07:30:57;;;;;;;;;;;;;;;0.32;85.07;101129.48;1587342;89;20264;-81
2020/12/01 07:33:26;;;;;;;;;;;;;;;0.39;85.06;101129.69;1585614;87;20581;-81
2020/12/01 07:36:18;;;;;;;;;;;;;;;0.45;85.00;101133.70;1596085;87;20618;-81
2020/12/01 07:38:46;;;;;;;;;;;;;;;0.47;84.95;101139.31;1586034;87;21283;-80
2020/12/01 07:41:22;;;;;;;;;;;;;;;0.52;84.98;101136.91;1602168;87;20315;-81
2020/12/01 07:44:00;;;;;;;;;;;;;;;0.57;84.93;101139.17;1614541;87;20292;-81
2020/12/01 07:46:28;;;;;;;;;;;;;;;0.58;84.91;101137.08;1597031;87;20648;-81
2020/12/01 07:48:59;;;;;;;;;;;;;;;0.60;84.87;101140.14;1608330;87;20799;-81
2020/12/01 07:51:26;;;;;;;;;;;;;;;0.63;84.89;101135.14;1582679;88;21423;-82
2020/12/01 07:53:52;;;;;;;;;;;;;;;0.65;84.90;101143.70;1606169;87;20787;-82
2020/12/01 07:56:19;;;;;;;;;;;;;;;0.68;84.91;101145.88;1579738;89;20264;-82
2020/12/01 07:59:02;;;;;;;;;;;;;;;0.70;84.90;101134.94;1611937;88;20299;-81
2020/12/01 08:01:27;;;;;;;;;;;;;;;0.72;84.89;101140.08;1600468;86;20263;-81
2020/12/01 08:04:14;;;;;;;;;;;;;;;0.74;84.89;101144.41;1586759;89;20974;-82
2020/12/01 08:06:40;;;;;;;;;;;;;;;0.76;84.86;101137.68;1583700;87;20536;-81
2020/12/01 08:09:12;;;;;;;;;;;;;;;0.79;84.90;101142.88;1563300;89;20270;-81
2020/12/01 08:11:40;;;;;;;;;;;;;;;0.83;84.89;101145.97;1590493;89;20282;-80
2020/12/01 08:14:06;;;;;;;;;;;;;;;0.85;84.87;101153.25;1598533;88;20289;-80
2020/12/01 08:16:32;;;;;;;;;;;;;;;0.88;84.87;101155.03;1586962;88;21527;-81
2020/12/01 08:18:59;;;;;;;;;;;;;;;0.89;84.86;101152.53;1590264;88;20265;-80
2020/12/01 08:21:36;;;;;;;;;;;;;;;0.92;84.86;101153.03;1596250;89;20257;-80
2020/12/01 08:24:07;;;;;;;;;;;;;;;0.93;84.85;101153.08;1548259;91;20588;-82
2020/12/01 08:26:37;;;;;;;;;;;;;;;0.95;84.86;101155.27;1581944;87;299786;-82
2020/12/01 08:29:23;;;;;;;;;;;;;;;0.98;84.85;101154.50;1586042;89;21117;-80
2020/12/01 08:32:18;;;;;;;;;;;;;;;1.02;84.88;101155.05;1593516;88;20272;-83
2020/12/01 08:34:51;;;;;;;;;;;;;;;1.05;84.85;101155.53;1605483;88;20285;-82
2020/12/01 08:37:23;;;;;;;;;;;;;;;1.08;84.81;101156.89;1585553;89;20666;-83
2020/12/01 08:40:07;;;;;;;;;;;;;;;1.09;84.85;101154.40;1590583;87;20260;-83
2020/12/01 08:43:02;;;;;;;;;;;;;;;1.12;84.78;101161.27;1585105;89;21374;-83
2020/12/01 08:46:03;;;;;;;;;;;;;;;1.12;84.76;101164.67;1588918;87;20533;-84
2020/12/01 08:48:42;;;;;;;;;;;;;;;1.14;84.77;101168.55;1597624;87;20260;-84
2020/12/01 08:51:21;;;;;;;;;;;;;;;1.15;84.71;101160.09;1590340;88;20275;-83
2020/12/01 08:53:50;;;;;;;;;;;;;;;1.17;84.75;101168.64;1604559;88;20310;-82
2020/12/01 08:56:23;;;;;;;;;;;;;;;1.20;84.77;101168.73;1588535;89;21122;-82
2020/12/01 08:58:51;;;;;;;;;;;;;;;1.23;84.77;101178.61;1593097;89;20294;-83
2020/12/01 09:01:17;;;;;;;;;;;;;;;1.24;84.72;101177.80;1603645;86;20281;-83
2020/12/01 09:03:57;;;;;;;;;;;;;;;1.27;84.73;101181.70;1609234;87;144524;-83
2020/12/01 09:06:29;;;;;;;;;;;;;;;1.32;84.79;101185.67;1589369;89;20294;-83
2020/12/01 09:09:00;;;;;;;;;;;;;;;1.37;84.81;101185.81;1584254;89;21930;-82
2020/12/01 09:14:39;;;;;;;;;;;;;;;1.47;84.75;101191.23;1614524;87;20171;-83
2020/12/01 09:17:05;;;;;;;;;;;;;;;1.54;84.81;101185.91;1609502;87;20482;-83
2020/12/01 09:22:15;;;;;;;;;;;;;;;1.61;84.64;101189.92;1591104;87;20369;-84
2020/12/01 09:24:41;;;;;;;;;;;;;;;1.66;84.67;101190.06;1603674;87;20171;-83
2020/12/01 09:27:10;;;;;;;;;;;;;;;1.72;84.70;101192.80;1605968;89;20230;-83
2020/12/01 09:29:36;;;;;;;;;;;;;;;1.78;84.72;101195.93;1608776;87;20294;-83
2020/12/01 09:32:05;;;;;;;;;;;;;;;1.83;84.65;101195.66;1608547;88;20724;-84
2020/12/01 09:34:32;;;;;;;;;;;;;;;1.89;84.72;101197.97;1592460;87;21184;-84
2020/12/01 09:37:01;;;;;;;;;;;;;;;1.97;84.73;101198.19;1594039;89;20287;-83
2020/12/01 09:39:28;;;;;;;;;;;;;;;2.01;84.61;101188.52;1607150;87;20560;-82
2020/12/01 09:42:22;;;;;;;;;;;;;;;2.05;84.52;101193.30;1609373;89;20269;-83
2020/12/01 09:44:50;;;;;;;;;;;;;;;2.08;84.50;101192.94;1612370;87;20278;-84
2020/12/01 09:47:11;;;;;;;;;;;;;;;2.12;84.52;101193.48;1603655;87;20257;-84
2020/12/01 09:49:35;;;;;;;;;;;;;;;2.16;84.51;101193.16;1611310;87;20275;-83
2020/12/01 09:52:08;;;;;;;;;;;;;;;2.21;84.53;101199.25;1607453;87;20194;-83
2020/12/01 09:54:36;;;;;;;;;;;;;;;2.22;84.42;101193.32;1604645;89;20313;-82
2020/12/01 09:57:04;;;;;;;;;;;;;;;2.26;84.48;101194.72;1610301;87;20266;-84
2020/12/01 09:59:35;;;;;;;;;;;;;;;2.28;84.40;101194.77;1605558;89;20284;-84
2020/12/01 10:05:04;;;;;;;;;;;;;;;2.31;84.37;101198.27;1594023;89;20291;-84
2020/12/01 10:10:10;;;;;;;;;;;;;;;2.32;84.27;101199.13;1603990;87;20259;-82
2020/12/01 10:12:43;;;;;;;;;;;;;;;2.33;84.28;101199.58;1592412;89;20287;-83
2020/12/01 10:17:53;;;;;;;;;;;;;;;2.33;84.28;101188.96;1590243;87;20278;-83
2020/12/01 10:26:01;;;;;;;;;;;;;;;2.42;84.15;101190.89;1597901;88;20301;-83
2020/12/01 10:34:11;;;;;;;;;;;;;;;2.39;84.18;101189.95;1586760;89;20314;-84
2020/12/01 10:36:22;;;;;;;;;;;;;;;2.41;84.25;101189.58;1595142;89;20558;-82
2020/12/01 10:38:48;;;;;;;;;;;;;;;2.44;84.32;101191.80;1602606;87;21240;-83
2020/12/01 10:41:14;;;;;;;;;;;;;;;2.49;84.28;101199.16;1591931;87;20256;-83
2020/12/01 10:43:41;;;;;;;;;;;;;;;2.51;84.23;101201.34;1604121;87;20467;-83
2020/12/01 10:46:09;;;;;;;;;;;;;;;2.53;84.25;101205.21;1590776;88;20266;-83
2020/12/01 10:48:35;;;;;;;;;;;;;;;2.55;84.16;101207.39;1593703;87;20295;-83
2020/12/01 10:51:01;;;;;;;;;;;;;;;2.54;84.07;101209.08;1599003;89;21400;-83
2020/12/01 10:53:27;;;;;;;;;;;;;;;2.54;84.05;101205.66;1583617;89;20727;-82
2020/12/01 10:55:52;;;;;;;;;;;;;;;2.55;84.17;101210.81;1597785;87;20262;-82
2020/12/01 10:58:18;;;;;;;;;;;;;;;2.58;84.14;101216.00;1602035;88;20194;-82
2020/12/01 11:00:44;;;;;;;;;;;;;;;2.63;84.21;101219.91;1594713;87;20303;-80
2020/12/01 11:03:10;;;;;;;;;;;;;;;2.68;84.13;101223.86;1586706;88;22040;-83
2020/12/01 11:05:36;;;;;;;;;;;;;;;2.70;84.11;101223.08;1581990;89;20196;-81
2020/12/01 11:08:02;;;;;;;;;;;;;;;2.73;84.04;101226.98;1596678;87;21247;-82
2020/12/01 11:10:28;;;;;;;;;;;;;;;2.72;83.95;101223.11;1601885;89;20572;-83
2020/12/01 11:12:53;;;;;;;;;;;;;;;2.71;84.02;101226.49;1600004;87;20229;-82
2020/12/01 11:15:19;;;;;;;;;;;;;;;2.69;83.89;101226.86;1598463;89;22411;-82
2020/12/01 11:17:45;;;;;;;;;;;;;;;2.68;83.96;101225.14;1596123;88;20300;-83
2020/12/01 11:20:13;;;;;;;;;;;;;;;2.70;84.00;101232.02;1594149;87;20198;-84
2020/12/01 11:22:39;;;;;;;;;;;;;;;2.72;84.01;101236.75;1577807;89;20302;-82
2020/12/01 11:25:05;;;;;;;;;;;;;;;2.75;84.02;101241.94;1607341;88;20235;-83
2020/12/01 11:27:30;;;;;;;;;;;;;;;2.75;83.93;101239.38;1592774;88;21161;-82
2020/12/01 11:29:56;;;;;;;;;;;;;;;2.77;83.99;101241.97;1582312;89;20289;-81
2020/12/01 11:32:22;;;;;;;;;;;;;;;2.78;83.94;101240.73;1576127;89;20221;-83
2020/12/01 11:34:48;;;;;;;;;;;;;;;2.79;83.95;101241.59;1600928;87;20216;-84
2020/12/01 11:37:14;;;;;;;;;;;;;;;2.80;83.93;101240.77;1604325;87;20253;-83
2020/12/01 11:39:39;;;;;;;;;;;;;;;2.81;83.94;101245.06;1586923;88;21401;-84
2020/12/01 11:42:05;;;;;;;;;;;;;;;2.82;83.91;101235.30;1605777;88;20286;-83
2020/12/01 11:44:31;;;;;;;;;;;;;;;2.84;84.00;101246.00;1594180;87;20171;-84
2020/12/01 11:46:57;;;;;;;;;;;;;;;2.88;83.99;101246.53;1561821;89;21367;-84
2020/12/01 11:49:24;;;;;;;;;;;;;;;2.92;84.00;101252.17;1607424;88;20309;-83
2020/12/01 11:51:50;;;;;;;;;;;;;;;2.94;83.89;101245.82;1579120;87;21977;-80
2020/12/01 11:54:16;;;;;;;;;;;;;;;2.94;83.88;101247.96;1568254;89;20487;-80
2020/12/01 11:56:42;;;;;;;;;;;;;;;2.96;83.86;101246.72;1593396;88;20316;-82
2020/12/01 11:59:08;;;;;;;;;;;;;;;2.96;83.76;101243.75;1596517;85;20292;-81
2020/12/01 12:01:35;;;;;;;;;;;;;;;2.96;83.75;101250.55;1584505;87;20289;-80
2020/12/01 12:04:05;;;;;;;;;;;;;;;2.96;83.80;101248.00;1601290;89;21214;-80
2020/12/01 12:06:31;;;;;;;;;;;;;;;2.98;83.73;101251.05;1598891;88;20275;-82
2020/12/01 12:08:58;;;;;;;;;;;;;;;2.98;83.71;101250.18;1601864;89;20212;-82
2020/12/01 12:11:23;;;;;;;;;;;;;;;3.00;83.77;101253.64;1597131;87;20261;-82
2020/12/01 12:13:49;;;;;;;;;;;;;;;2.98;83.71;101245.94;1588754;89;21416;-82
2020/12/01 12:16:16;;;;;;;;;;;;;;;2.96;83.63;101248.86;1591628;87;21224;-82
2020/12/01 12:18:42;;;;;;;;;;;;;;;2.96;83.70;101246.72;1589936;88;20549;-80
2020/12/01 12:21:08;;;;;;;;;;;;;;;2.97;83.71;101250.59;1600482;89;20298;-81
2020/12/01 12:23:34;;;;;;;;;;;;;;;2.99;83.78;101245.11;1564606;88;20248;-83
2020/12/01 12:26:00;;;;;;;;;;;;;;;3.02;83.74;101241.77;1597389;87;20327;-82
2020/12/01 12:28:26;;;;;;;;;;;;;;;3.03;83.67;101246.05;1601288;88;21127;-82
2020/12/01 12:30:53;;;;;;;;;;;;;;;3.03;83.68;101248.61;1579575;89;20271;-82
2020/12/01 12:33:20;;;;;;;;;;;;;;;3.03;83.69;101249.02;1599076;87;20268;-81
2020/12/01 12:35:45;;;;;;;;;;;;;;;3.03;83.64;101245.19;1599149;87;20671;-80
2020/12/01 12:38:11;;;;;;;;;;;;;;;3.03;83.67;101250.30;1592113;88;20246;-82
2020/12/01 12:40:37;;;;;;;;;;;;;;;3.03;83.66;101251.16;1590771;87;21268;-80
2020/12/01 12:43:03;;;;;;;;;;;;;;;3.03;83.67;101248.61;1607317;87;20764;-81
2020/12/01 12:45:30;;;;;;;;;;;;;;;3.04;83.60;101252.02;1615592;86;20175;-82
2020/12/01 12:47:57;;;;;;;;;;;;;;;3.04;83.61;101258.41;1601209;87;20640;-81
2020/12/01 12:50:23;;;;;;;;;;;;;;;3.05;83.58;101253.34;1575195;89;20249;-82
2020/12/01 12:52:48;;;;;;;;;;;;;;;3.06;83.59;101258.03;1605639;88;21226;-81
2020/12/01 12:55:14;;;;;;;;;;;;;;;3.07;83.56;101258.48;1592244;88;20264;-83
2020/12/01 12:57:40;;;;;;;;;;;;;;;3.06;83.53;101264.01;1595930;88;20215;-82
2020/12/01 13:00:07;;;;;;;;;;;;;;;3.06;83.49;101260.17;1606806;88;20706;-81
2020/12/01 13:02:32;;;;;;;;;;;;;;;3.05;83.49;101266.11;1593184;88;20292;-80
2020/12/01 13:04:58;;;;;;;;;;;;;;;3.04;83.48;101264.38;1600502;87;21299;-80
2020/12/01 13:07:24;;;;;;;;;;;;;;;3.04;83.44;101264.80;1589178;88;20718;-80
2020/12/01 13:09:50;;;;;;;;;;;;;;;3.00;83.39;101263.86;1606881;88;20210;-83
2020/12/01 13:12:15;;;;;;;;;;;;;;;2.96;83.31;101265.47;1600024;87;20583;-84
2020/12/01 13:14:41;;;;;;;;;;;;;;;2.93;83.36;101264.11;1601121;88;20167;-83
2020/12/01 13:17:07;;;;;;;;;;;;;;;2.91;83.31;101263.63;1606316;87;21066;-82
2020/12/01 13:19:33;;;;;;;;;;;;;;;2.89;83.39;101267.41;1592946;88;20279;-84
2020/12/01 13:21:58;;;;;;;;;;;;;;;2.86;83.35;101269.02;1606604;87;20231;-81
2020/12/01 13:24:24;;;;;;;;;;;;;;;2.84;83.32;101271.54;1590859;88;20306;-83